createdAt,value
2022-10-18T00:00:12.601Z,179.30
2022-10-18T00:01:12.576Z,169.50
2022-10-18T00:02:12.625Z,169.80
2022-10-18T00:03:12.552Z,175.70
2022-10-18T00:04:12.666Z,176.40
2022-10-18T00:05:12.535Z,174.50
2022-10-18T00:06:12.531Z,183.70
2022-10-18T00:07:12.506Z,187.70
2022-10-18T00:08:12.482Z,185.80
2022-10-18T00:09:12.498Z,177.50
2022-10-18T00:10:12.571Z,177.80
2022-10-18T00:11:12.452Z,185.90
2022-10-18T00:12:12.468Z,193.50
2022-10-18T00:13:12.412Z,181.20
2022-10-18T00:14:12.416Z,192.50
2022-10-18T00:15:12.393Z,186.50
2022-10-18T00:16:12.504Z,186.60
2022-10-18T00:17:12.383Z,211.10
2022-10-18T00:18:12.354Z,187.10
2022-10-18T00:19:12.362Z,192.40
2022-10-18T00:20:12.363Z,180.10
2022-10-18T00:21:12.305Z,198.40
2022-10-18T00:22:12.413Z,179.70
2022-10-18T00:23:12.290Z,196.20
2022-10-18T00:24:12.317Z,190.30
2022-10-18T00:25:12.336Z,184.80
2022-10-18T00:26:12.250Z,190.20
2022-10-18T00:27:12.226Z,189.10
2022-10-18T00:28:12.269Z,218.80
2022-10-18T00:29:12.211Z,190.00
2022-10-18T00:30:12.188Z,185.20
2022-10-18T00:31:12.186Z,185.90
2022-10-18T00:32:12.201Z,178.10
2022-10-18T00:33:12.285Z,186.20
2022-10-18T00:34:12.264Z,180.80
2022-10-18T00:35:12.119Z,180.20
2022-10-18T00:36:12.125Z,178.90
2022-10-18T00:37:12.112Z,180.60
2022-10-18T00:38:12.080Z,188.00
2022-10-18T00:39:12.075Z,195.00
2022-10-18T00:40:12.195Z,192.90
2022-10-18T00:41:12.108Z,188.70
2022-10-18T00:42:12.097Z,179.20
2022-10-18T00:43:12.013Z,186.80
2022-10-18T00:44:12.002Z,195.70
2022-10-18T00:45:12.018Z,193.70
2022-10-18T00:46:12.102Z,194.60
2022-10-18T00:47:11.967Z,190.60
2022-10-18T00:48:11.976Z,209.10
2022-10-18T00:49:11.934Z,181.00
2022-10-18T00:50:11.950Z,179.40
2022-10-18T00:51:11.906Z,169.90
2022-10-18T00:52:12.018Z,182.60
2022-10-18T00:53:11.899Z,187.90
2022-10-18T00:54:11.880Z,176.80
2022-10-18T00:55:11.854Z,180.50
2022-10-18T00:56:11.838Z,188.20
2022-10-18T00:57:11.841Z,181.00
2022-10-18T00:58:11.857Z,173.50
2022-10-18T00:59:11.812Z,185.20
2022-10-18T01:00:11.805Z,177.70
2022-10-18T01:01:11.803Z,187.40
2022-10-18T01:02:11.893Z,192.60
2022-10-18T01:03:11.740Z,189.90
2022-10-18T01:04:11.859Z,190.20
2022-10-18T01:05:11.727Z,177.70
2022-10-18T01:06:11.724Z,190.70
2022-10-18T01:07:11.701Z,183.60
2022-10-18T01:08:11.693Z,180.00
2022-10-18T01:09:11.670Z,220.10
2022-10-18T01:10:11.707Z,184.50
2022-10-18T01:11:11.643Z,193.70
2022-10-18T01:12:11.643Z,190.50
2022-10-18T01:13:11.635Z,192.70
2022-10-18T01:14:11.627Z,183.10
2022-10-18T01:15:11.593Z,186.20
2022-10-18T01:16:11.715Z,176.80
2022-10-18T01:17:11.572Z,205.80
2022-10-18T01:18:11.550Z,201.90
2022-10-18T01:19:11.538Z,214.10
2022-10-18T01:20:11.527Z,202.50
2022-10-18T01:21:11.496Z,195.30
2022-10-18T01:22:11.625Z,190.80
2022-10-18T01:23:11.473Z,199.20
2022-10-18T01:24:11.467Z,198.60
2022-10-18T01:25:11.539Z,240.30
2022-10-18T01:26:11.456Z,236.60
2022-10-18T01:27:11.417Z,261.40
2022-10-18T01:28:11.427Z,226.60
2022-10-18T01:29:11.413Z,245.60
2022-10-18T01:30:11.388Z,225.60
2022-10-18T01:31:11.381Z,274.90
2022-10-18T01:32:11.372Z,207.80
2022-10-18T01:33:11.348Z,222.50
2022-10-18T01:34:11.453Z,214.10
2022-10-18T01:35:11.309Z,195.80
2022-10-18T01:36:11.371Z,184.20
2022-10-18T01:37:11.307Z,177.70
2022-10-18T01:38:11.290Z,190.30
2022-10-18T01:39:11.277Z,195.90
2022-10-18T01:40:11.296Z,207.20
2022-10-18T01:41:14.817Z,203.70
2022-10-18T01:42:11.270Z,225.80
2022-10-18T01:43:11.204Z,309.80
2022-10-18T01:44:11.200Z,288.80
2022-10-18T01:45:11.229Z,202.80
2022-10-18T01:46:11.282Z,182.00
2022-10-18T01:47:11.175Z,196.60
2022-10-18T01:48:11.178Z,191.90
2022-10-18T01:49:11.125Z,197.40
2022-10-18T01:50:11.128Z,207.90
2022-10-18T01:51:11.106Z,242.10
2022-10-18T01:52:11.201Z,195.60
2022-10-18T01:53:11.079Z,191.20
2022-10-18T01:54:11.082Z,197.40
2022-10-18T01:55:11.061Z,217.80
2022-10-18T01:56:11.049Z,227.50
2022-10-18T01:57:11.020Z,179.50
2022-10-18T01:58:11.118Z,186.10
2022-10-18T01:59:11.010Z,180.70
2022-10-18T02:00:10.992Z,211.80
2022-10-18T02:02:10.974Z,205.50
2022-10-18T02:03:10.937Z,248.30
2022-10-18T02:04:11.072Z,314.90
2022-10-18T02:05:10.949Z,298.90
2022-10-18T02:06:10.902Z,256.60
2022-10-18T02:07:10.896Z,323.10
2022-10-18T02:08:21.989Z,302.00
2022-10-18T02:09:11.872Z,284.50
2022-10-18T02:10:10.896Z,233.10
2022-10-18T02:11:10.840Z,228.30
2022-10-18T02:12:10.823Z,283.10
2022-10-18T02:13:10.818Z,275.10
2022-10-18T02:14:10.806Z,166.10
2022-10-18T02:15:10.891Z,232.30
2022-10-18T02:16:10.763Z,255.40
2022-10-18T02:17:10.749Z,304.00
2022-10-18T02:18:10.724Z,306.20
2022-10-18T02:19:10.728Z,258.50
2022-10-18T02:20:10.718Z,180.60
2022-10-18T02:21:10.818Z,192.10
2022-10-18T02:22:10.689Z,183.60
2022-10-18T02:23:10.670Z,143.30
2022-10-18T02:24:10.667Z,127.80
2022-10-18T02:25:10.680Z,173.80
2022-10-18T02:26:10.629Z,141.70
2022-10-18T02:27:10.859Z,128.50
2022-10-18T02:28:10.665Z,118.50
2022-10-18T02:29:10.603Z,132.90
2022-10-18T02:30:10.579Z,138.00
2022-10-18T02:31:10.573Z,128.00
2022-10-18T02:32:10.568Z,129.80
2022-10-18T02:33:10.640Z,180.50
2022-10-18T02:34:10.535Z,145.70
2022-10-18T02:35:10.514Z,154.70
2022-10-18T02:36:10.522Z,176.30
2022-10-18T02:37:10.484Z,124.30
2022-10-18T02:38:10.472Z,132.70
2022-10-18T02:39:10.496Z,164.40
2022-10-18T02:40:10.455Z,183.00
2022-10-18T02:41:10.421Z,232.00
2022-10-18T02:42:10.460Z,198.30
2022-10-18T02:43:10.393Z,225.90
2022-10-18T02:44:10.394Z,165.00
2022-10-18T02:45:10.501Z,238.10
2022-10-18T02:46:10.369Z,222.20
2022-10-18T02:47:10.364Z,207.40
2022-10-18T02:48:10.334Z,171.70
2022-10-18T02:49:10.385Z,179.60
2022-10-18T02:50:10.305Z,160.30
2022-10-18T02:51:10.443Z,156.70
2022-10-18T02:52:10.289Z,180.90
2022-10-18T02:53:10.277Z,148.50
2022-10-18T02:54:10.260Z,137.60
2022-10-18T02:55:10.253Z,158.70
2022-10-18T02:56:10.217Z,127.00
2022-10-18T02:57:10.360Z,128.60
2022-10-18T02:58:10.197Z,127.40
2022-10-18T02:59:10.194Z,128.30
2022-10-18T03:00:10.171Z,110.90
2022-10-18T03:01:10.236Z,119.50
2022-10-18T03:02:10.139Z,135.60
2022-10-18T03:03:10.162Z,141.90
2022-10-18T03:04:10.123Z,166.00
2022-10-18T03:05:10.125Z,136.60
2022-10-18T03:06:10.096Z,120.70
2022-10-18T03:07:10.081Z,128.80
2022-10-18T03:08:10.059Z,126.80
2022-10-18T03:09:10.193Z,122.10
2022-10-18T03:10:10.023Z,129.90
2022-10-18T03:11:10.039Z,137.40
2022-10-18T03:12:10.025Z,150.60
2022-10-18T03:13:09.993Z,135.40
2022-10-18T03:14:09.996Z,132.30
2022-10-18T03:15:10.009Z,174.30
2022-10-18T03:16:09.966Z,146.60
2022-10-18T03:17:09.948Z,155.70
2022-10-18T03:18:09.929Z,139.70
2022-10-18T03:19:09.906Z,201.90
2022-10-18T03:20:09.885Z,188.70
2022-10-18T03:21:10.064Z,198.10
2022-10-18T03:22:09.865Z,218.50
2022-10-18T03:23:09.878Z,206.30
2022-10-18T03:24:09.852Z,145.70
2022-10-18T03:25:09.847Z,141.70
2022-10-18T03:26:09.831Z,137.00
2022-10-18T03:27:09.835Z,150.90
2022-10-18T03:28:09.813Z,211.00
2022-10-18T03:29:09.890Z,187.80
2022-10-18T03:31:40.954Z,133.00
2022-10-18T03:32:20.052Z,130.50
2022-10-18T03:33:19.901Z,143.30
2022-10-18T03:34:19.893Z,140.10
2022-10-18T03:35:19.870Z,211.70
2022-10-18T03:36:19.860Z,303.50
2022-10-18T03:37:19.854Z,325.60
2022-10-18T03:38:19.861Z,324.40
2022-10-18T03:39:19.835Z,233.50
2022-10-18T03:40:19.874Z,191.80
2022-10-18T03:41:19.792Z,186.40
2022-10-18T03:42:19.772Z,249.10
2022-10-18T03:43:20.475Z,224.60
2022-10-18T03:44:19.797Z,233.40
2022-10-18T03:45:19.752Z,260.50
2022-10-18T03:46:19.766Z,268.00
2022-10-18T03:47:19.726Z,266.60
2022-10-18T03:48:19.724Z,140.30
2022-10-18T03:49:19.786Z,169.00
2022-10-18T03:50:19.786Z,228.70
2022-10-18T03:51:19.686Z,212.90
2022-10-18T03:52:19.671Z,223.20
2022-10-18T03:53:19.645Z,202.70
2022-10-18T03:54:19.636Z,239.80
2022-10-18T03:55:19.607Z,277.70
2022-10-18T03:56:19.640Z,262.40
2022-10-18T03:57:19.614Z,250.90
2022-10-18T03:58:19.624Z,192.00
2022-10-18T03:59:19.562Z,216.30
2022-10-18T04:00:19.552Z,172.80
2022-10-18T04:01:19.597Z,153.70
2022-10-18T04:02:19.652Z,267.80
2022-10-18T04:03:19.518Z,289.80
2022-10-18T04:04:19.504Z,275.80
2022-10-18T04:05:19.489Z,135.00
2022-10-18T04:06:19.472Z,259.20
2022-10-18T04:07:19.444Z,281.40
2022-10-18T04:08:19.551Z,243.90
2022-10-18T04:09:19.453Z,253.80
2022-10-18T04:10:19.409Z,218.00
2022-10-18T04:11:19.405Z,237.90
2022-10-18T04:12:19.406Z,261.50
2022-10-18T04:13:19.364Z,174.50
2022-10-18T04:14:19.458Z,98.20
2022-10-18T04:15:19.351Z,111.70
2022-10-18T04:16:19.337Z,101.60
2022-10-18T04:17:19.308Z,133.80
2022-10-18T04:18:19.313Z,124.60
2022-10-18T04:19:19.283Z,108.50
2022-10-18T04:20:19.291Z,93.20
2022-10-18T04:21:19.278Z,116.60
2022-10-18T04:22:19.246Z,111.10
2022-10-18T04:23:19.247Z,101.70
2022-10-18T04:24:19.229Z,105.70
2022-10-18T04:25:19.212Z,143.70
2022-10-18T04:26:19.323Z,103.90
2022-10-18T04:27:19.176Z,83.70
2022-10-18T04:28:19.171Z,85.30
2022-10-18T04:29:19.173Z,143.00
2022-10-18T04:30:19.150Z,215.50
2022-10-18T04:31:19.152Z,307.70
2022-10-18T04:32:19.154Z,319.70
2022-10-18T04:33:19.100Z,343.20
2022-10-18T04:34:19.100Z,345.60
2022-10-18T04:35:19.086Z,327.40
2022-10-18T04:36:19.071Z,343.00
2022-10-18T04:37:19.055Z,340.30
2022-10-18T04:38:19.041Z,348.20
2022-10-18T04:39:19.027Z,346.80
2022-10-18T04:40:19.015Z,347.10
2022-10-18T04:41:18.983Z,365.40
2022-10-18T04:42:18.976Z,359.60
2022-10-18T04:43:18.961Z,362.30
2022-10-18T04:44:19.059Z,373.30
2022-10-18T04:45:18.945Z,386.20
2022-10-18T04:46:18.928Z,310.40
2022-10-18T04:47:18.906Z,391.30
2022-10-18T04:48:18.885Z,321.50
2022-10-18T04:49:18.910Z,393.50
2022-10-18T04:50:18.885Z,375.60
2022-10-18T04:51:18.884Z,308.10
2022-10-18T04:52:18.851Z,276.10
2022-10-18T04:53:18.826Z,225.20
2022-10-18T04:54:18.830Z,257.70
2022-10-18T04:55:18.795Z,321.50
2022-10-18T04:56:18.808Z,389.80
2022-10-18T04:57:18.792Z,320.50
2022-10-18T04:58:18.779Z,335.70
2022-10-18T04:59:18.751Z,351.40
2022-10-18T05:00:18.833Z,400.20
2022-10-18T05:01:18.809Z,394.10
2022-10-18T05:02:18.731Z,405.20
2022-10-18T05:03:18.710Z,388.90
2022-10-18T05:04:18.684Z,367.20
2022-10-18T05:05:18.659Z,374.70
2022-10-18T05:06:18.670Z,377.00
2022-10-18T05:07:18.631Z,369.60
2022-10-18T05:08:18.720Z,390.90
2022-10-18T05:09:18.652Z,396.10
2022-10-18T05:10:18.605Z,388.40
2022-10-18T05:11:18.604Z,383.60
2022-10-18T05:12:18.584Z,398.80
2022-10-18T05:13:18.555Z,405.80
2022-10-18T05:14:18.580Z,409.40
2022-10-18T05:15:18.523Z,405.90
2022-10-18T05:16:18.505Z,407.30
2022-10-18T05:17:18.520Z,393.00
2022-10-18T05:18:18.499Z,362.30
2022-10-18T05:19:18.479Z,379.40
2022-10-18T05:20:18.483Z,349.60
2022-10-18T05:21:18.451Z,400.50
2022-10-18T05:22:18.425Z,285.00
2022-10-18T05:23:18.431Z,332.40
2022-10-18T05:24:18.429Z,242.30
2022-10-18T05:25:18.398Z,206.80
2022-10-18T05:26:18.506Z,251.90
2022-10-18T05:27:18.383Z,325.20
2022-10-18T05:28:38.754Z,256.70
2022-10-18T05:29:19.412Z,292.10
2022-10-18T05:30:18.308Z,228.80
2022-10-18T05:31:18.321Z,214.90
2022-10-18T05:32:18.460Z,227.70
2022-10-18T05:33:18.271Z,224.80
2022-10-18T05:34:18.276Z,216.80
2022-10-18T05:35:18.252Z,215.70
2022-10-18T05:36:18.240Z,283.90
2022-10-18T05:37:18.247Z,265.30
2022-10-18T05:38:18.324Z,325.90
2022-10-18T05:39:18.206Z,264.10
2022-10-18T05:40:18.188Z,243.50
2022-10-18T05:41:18.178Z,249.10
2022-10-18T05:42:18.166Z,252.70
2022-10-18T05:43:18.194Z,292.00
2022-10-18T05:44:18.227Z,226.50
2022-10-18T05:45:18.126Z,350.60
2022-10-18T05:46:18.111Z,365.50
2022-10-18T05:47:18.099Z,400.50
2022-10-18T05:48:18.090Z,294.40
2022-10-18T05:49:18.072Z,341.10
2022-10-18T05:50:18.076Z,324.20
2022-10-18T05:51:18.049Z,228.10
2022-10-18T05:52:18.032Z,335.00
2022-10-18T05:53:35.785Z,395.80
2022-10-18T05:54:19.039Z,381.70
2022-10-18T05:55:17.972Z,360.20
2022-10-18T05:56:18.095Z,372.30
2022-10-18T05:57:17.969Z,260.80
2022-10-18T05:58:17.937Z,251.90
2022-10-18T05:59:17.957Z,244.20
2022-10-18T06:00:17.920Z,386.40
2022-10-18T06:01:17.900Z,381.10
2022-10-18T06:02:18.036Z,328.20
2022-10-18T06:03:17.865Z,363.50
2022-10-18T06:04:17.842Z,342.10
2022-10-18T06:05:17.855Z,346.10
2022-10-18T06:06:17.845Z,323.60
2022-10-18T06:07:17.824Z,374.20
2022-10-18T06:08:17.841Z,339.80
2022-10-18T06:09:17.810Z,379.20
2022-10-18T06:10:17.769Z,367.30
2022-10-18T06:11:17.768Z,327.40
2022-10-18T06:12:17.765Z,363.20
2022-10-18T06:13:17.725Z,377.10
2022-10-18T06:14:17.839Z,311.20
2022-10-18T06:15:17.697Z,262.60
2022-10-18T06:16:17.751Z,253.00
2022-10-18T06:17:17.705Z,322.70
2022-10-18T06:18:17.695Z,360.50
2022-10-18T06:19:17.661Z,398.20
2022-10-18T06:20:17.788Z,416.00
2022-10-18T06:21:17.625Z,372.80
2022-10-18T06:22:17.601Z,353.10
2022-10-18T06:23:17.614Z,270.70
2022-10-18T06:24:17.594Z,295.60
2022-10-18T06:25:17.573Z,345.10
2022-10-18T06:26:17.682Z,298.80
2022-10-18T06:27:17.540Z,256.20
2022-10-18T06:28:17.520Z,226.50
2022-10-18T06:29:17.534Z,236.80
2022-10-18T06:30:17.491Z,289.10
2022-10-18T06:31:17.494Z,368.10
2022-10-18T06:32:17.606Z,358.20
2022-10-18T06:33:17.463Z,258.50
2022-10-18T06:34:17.452Z,207.00
2022-10-18T06:35:17.435Z,240.00
2022-10-18T06:36:17.415Z,277.50
2022-10-18T06:37:17.418Z,308.30
2022-10-18T06:38:17.503Z,273.90
2022-10-18T06:39:17.403Z,369.60
2022-10-18T06:40:17.367Z,219.10
2022-10-18T06:41:17.349Z,264.90
2022-10-18T06:42:19.140Z,334.20
2022-10-18T06:43:21.120Z,323.00
2022-10-18T06:44:17.419Z,257.20
2022-10-18T06:45:17.297Z,349.30
2022-10-18T06:46:17.286Z,343.30
2022-10-18T06:47:17.291Z,248.90
2022-10-18T06:48:17.293Z,301.80
2022-10-18T06:49:19.164Z,269.10
2022-10-18T06:50:17.266Z,353.40
2022-10-18T06:51:17.209Z,375.40
2022-10-18T06:52:17.197Z,384.40
2022-10-18T06:53:17.182Z,374.80
2022-10-18T06:54:18.793Z,377.50
2022-10-18T06:55:17.143Z,378.20
2022-10-18T06:56:17.269Z,323.60
2022-10-18T06:57:17.148Z,311.60
2022-10-18T06:58:17.128Z,355.40
2022-10-18T06:59:17.116Z,324.10
2022-10-18T07:00:17.101Z,354.90
2022-10-18T07:01:17.102Z,326.60
2022-10-18T07:02:17.196Z,359.80
2022-10-18T07:03:17.041Z,378.50
2022-10-18T07:04:17.035Z,333.80
2022-10-18T07:05:17.030Z,352.00
2022-10-18T07:06:16.996Z,364.70
2022-10-18T07:07:17.009Z,233.70
2022-10-18T07:08:17.104Z,300.10
2022-10-18T07:09:16.974Z,285.00
2022-10-18T07:10:16.944Z,305.80
2022-10-18T07:11:16.941Z,342.30
2022-10-18T07:12:16.943Z,293.40
2022-10-18T07:13:33.220Z,337.30
2022-10-18T07:14:17.971Z,292.30
2022-10-18T07:15:16.879Z,292.70
2022-10-18T07:16:18.485Z,278.10
2022-10-18T07:17:16.884Z,253.90
2022-10-18T07:18:16.857Z,284.20
2022-10-18T07:19:16.834Z,284.60
2022-10-18T07:20:16.851Z,278.70
2022-10-18T07:21:16.789Z,291.80
2022-10-18T07:22:16.793Z,340.00
2022-10-18T07:23:16.777Z,301.10
2022-10-18T07:24:16.759Z,303.60
2022-10-18T07:25:16.755Z,290.10
2022-10-18T07:26:16.851Z,322.00
2022-10-18T07:27:16.709Z,335.60
2022-10-18T07:28:16.707Z,336.90
2022-10-18T07:29:16.696Z,265.90
2022-10-18T07:30:16.701Z,294.20
2022-10-18T07:31:16.673Z,290.00
2022-10-18T07:32:16.859Z,252.20
2022-10-18T07:33:16.638Z,305.80
2022-10-18T07:34:16.634Z,317.90
2022-10-18T07:35:16.597Z,323.40
2022-10-18T07:36:16.608Z,346.40
2022-10-18T07:37:16.594Z,329.80
2022-10-18T07:38:16.684Z,354.50
2022-10-18T07:39:18.669Z,346.90
2022-10-18T07:40:16.776Z,335.30
2022-10-18T07:41:16.774Z,364.10
2022-10-18T07:42:16.843Z,363.20
2022-10-18T07:43:16.747Z,370.20
2022-10-18T07:44:16.763Z,366.40
2022-10-18T07:45:16.716Z,385.60
2022-10-18T07:46:16.458Z,375.90
2022-10-18T07:47:16.462Z,368.90
2022-10-18T07:48:16.457Z,349.20
2022-10-18T07:49:16.411Z,338.60
2022-10-18T07:50:16.543Z,358.00
2022-10-18T07:51:16.411Z,369.30
2022-10-18T07:52:16.390Z,322.50
2022-10-18T07:53:16.374Z,341.70
2022-10-18T07:54:16.350Z,355.10
2022-10-18T07:55:16.362Z,357.00
2022-10-18T07:56:16.715Z,366.40
2022-10-18T07:57:16.301Z,358.10
2022-10-18T07:58:16.303Z,361.90
2022-10-18T07:59:16.287Z,372.80
2022-10-18T08:00:16.286Z,338.70
2022-10-18T08:01:16.319Z,357.90
2022-10-18T08:02:16.277Z,347.00
2022-10-18T08:03:16.223Z,355.50
2022-10-18T08:04:16.650Z,323.90
2022-10-18T08:05:16.212Z,339.90
2022-10-18T08:06:16.183Z,359.20
2022-10-18T08:07:16.180Z,338.90
2022-10-18T08:08:16.279Z,333.60
2022-10-18T08:09:16.165Z,336.70
2022-10-18T08:10:16.148Z,311.10
2022-10-18T08:11:16.127Z,304.90
2022-10-18T08:12:16.100Z,320.10
2022-10-18T08:13:16.102Z,313.00
2022-10-18T08:14:16.122Z,330.60
2022-10-18T08:15:16.058Z,292.10
2022-10-18T08:16:16.057Z,303.50
2022-10-18T08:17:16.054Z,324.80
2022-10-18T08:18:16.033Z,336.30
2022-10-18T08:19:16.022Z,305.80
2022-10-18T08:20:29.738Z,320.80
2022-10-18T08:21:16.978Z,311.00
2022-10-18T08:22:16.000Z,298.00
2022-10-18T08:23:15.961Z,284.60
2022-10-18T08:24:15.947Z,285.80
2022-10-18T08:25:15.965Z,311.70
2022-10-18T08:26:16.040Z,313.90
2022-10-18T08:27:15.920Z,314.50
2022-10-18T08:28:15.914Z,313.30
2022-10-18T08:29:23.967Z,309.30
2022-10-18T08:30:16.875Z,260.70
2022-10-18T08:31:15.866Z,267.60
2022-10-18T08:32:15.885Z,277.70
2022-10-18T08:33:15.823Z,281.90
2022-10-18T08:34:19.545Z,268.30
2022-10-18T08:35:15.794Z,226.60
2022-10-18T08:36:15.783Z,217.90
2022-10-18T08:37:15.779Z,249.00
2022-10-18T08:38:18.175Z,269.60
2022-10-18T08:39:15.748Z,249.90
2022-10-18T08:40:15.752Z,246.50
2022-10-18T08:41:15.698Z,233.30
2022-10-18T08:42:15.718Z,230.10
2022-10-18T08:43:20.695Z,220.00
2022-10-18T08:44:16.795Z,215.10
2022-10-18T08:45:30.271Z,209.90
2022-10-18T08:46:16.639Z,188.90
2022-10-18T08:47:15.651Z,188.40
2022-10-18T08:48:15.633Z,187.00
2022-10-18T08:49:15.599Z,185.20
2022-10-18T08:50:15.737Z,173.00
2022-10-18T08:51:15.570Z,156.20
2022-10-18T08:52:15.562Z,159.20
2022-10-18T08:53:15.554Z,132.10
2022-10-18T08:54:15.544Z,149.00
2022-10-18T08:55:15.534Z,147.90
2022-10-18T08:56:15.652Z,143.10
2022-10-18T08:57:15.504Z,143.90
2022-10-18T08:58:15.504Z,134.20
2022-10-18T08:59:15.505Z,136.90
2022-10-18T09:00:15.454Z,119.80
2022-10-18T09:01:15.450Z,118.70
2022-10-18T09:02:15.567Z,124.90
2022-10-18T09:03:15.481Z,123.90
2022-10-18T09:04:15.406Z,120.50
2022-10-18T09:05:15.397Z,116.60
2022-10-18T09:06:17.557Z,114.30
2022-10-18T09:07:15.368Z,108.30
2022-10-18T09:08:15.471Z,110.30
2022-10-18T09:09:15.340Z,110.50
2022-10-18T09:10:15.354Z,112.50
2022-10-18T09:11:15.312Z,115.10
2022-10-18T09:12:15.303Z,114.10
2022-10-18T09:13:15.292Z,103.30
2022-10-18T09:14:15.331Z,104.00
2022-10-18T09:15:15.261Z,104.60
2022-10-18T09:16:15.358Z,111.20
2022-10-18T09:17:16.256Z,101.50
2022-10-18T09:18:15.211Z,100.10
2022-10-18T09:19:15.207Z,99.20
2022-10-18T09:20:15.325Z,105.30
2022-10-18T09:21:15.190Z,99.20
2022-10-18T09:22:15.189Z,120.90
2022-10-18T09:23:15.143Z,130.60
2022-10-18T09:24:15.152Z,133.80
2022-10-18T09:25:15.136Z,124.40
2022-10-18T09:26:15.235Z,125.20
2022-10-18T09:27:15.108Z,157.00
2022-10-18T09:28:15.101Z,156.00
2022-10-18T09:29:15.134Z,144.00
2022-10-18T09:30:15.081Z,98.30
2022-10-18T09:31:15.037Z,87.10
2022-10-18T09:32:15.137Z,100.60
2022-10-18T09:33:15.024Z,79.20
2022-10-18T09:34:15.018Z,102.10
2022-10-18T09:35:14.987Z,94.00
2022-10-18T09:36:14.977Z,61.30
2022-10-18T09:37:14.986Z,50.80
2022-10-18T09:38:15.124Z,53.90
2022-10-18T09:39:14.934Z,53.50
2022-10-18T09:40:18.056Z,49.20
2022-10-18T09:41:14.899Z,43.40
2022-10-18T09:42:14.893Z,43.10
2022-10-18T09:43:14.871Z,41.70
2022-10-18T09:44:15.025Z,36.20
2022-10-18T09:45:14.856Z,39.60
2022-10-18T09:46:14.842Z,41.20
2022-10-18T09:47:16.927Z,40.10
2022-10-18T09:48:14.838Z,40.00
2022-10-18T09:49:16.345Z,39.90
2022-10-18T09:50:14.846Z,38.50
2022-10-18T09:51:14.776Z,39.20
2022-10-18T09:52:14.785Z,39.40
2022-10-18T09:53:14.751Z,37.00
2022-10-18T09:54:14.745Z,36.80
2022-10-18T09:55:14.738Z,35.90
2022-10-18T09:56:14.758Z,32.80
2022-10-18T09:57:14.698Z,32.60
2022-10-18T09:58:14.681Z,32.10
2022-10-18T09:59:14.667Z,32.00
2022-10-18T10:00:14.660Z,31.90
2022-10-18T10:01:14.681Z,30.80
2022-10-18T10:02:14.743Z,30.30
2022-10-18T10:03:14.663Z,30.20
2022-10-18T10:04:14.611Z,28.90
2022-10-18T10:05:14.606Z,28.90
2022-10-18T10:06:14.583Z,30.50
2022-10-18T10:07:14.575Z,30.00
2022-10-18T10:08:14.666Z,30.10
2022-10-18T10:09:14.523Z,29.50
2022-10-18T10:10:14.597Z,32.20
2022-10-18T10:11:14.503Z,29.50
2022-10-18T10:12:14.494Z,28.60
2022-10-18T10:13:14.515Z,27.60
2022-10-18T10:15:14.446Z,23.80
2022-10-18T10:16:14.442Z,23.30
2022-10-18T10:17:14.445Z,25.30
2022-10-18T10:18:14.408Z,24.80
2022-10-18T10:19:14.396Z,24.90
2022-10-18T10:20:14.534Z,24.30
2022-10-18T10:21:14.379Z,23.70
2022-10-18T10:22:14.368Z,24.70
2022-10-18T10:23:14.405Z,26.60
2022-10-18T10:24:14.328Z,26.00
2022-10-18T10:25:14.311Z,23.90
2022-10-18T10:26:14.409Z,24.40
2022-10-18T10:27:14.287Z,24.50
2022-10-18T10:28:14.271Z,23.70
2022-10-18T10:29:17.497Z,24.30
2022-10-18T10:30:15.281Z,24.40
2022-10-18T10:31:14.227Z,22.70
2022-10-18T10:32:14.343Z,22.10
2022-10-18T10:33:14.214Z,22.50
2022-10-18T10:34:14.210Z,23.10
2022-10-18T10:35:22.767Z,23.30
2022-10-18T10:36:15.174Z,22.40
2022-10-18T10:37:14.141Z,22.90
2022-10-18T10:38:14.201Z,21.90
2022-10-18T10:39:14.137Z,21.40
2022-10-18T10:40:18.403Z,20.00
2022-10-18T10:41:15.084Z,18.70
2022-10-18T10:42:14.107Z,19.20
2022-10-18T10:43:33.027Z,18.80
2022-10-18T10:44:15.212Z,18.60
2022-10-18T10:45:14.050Z,18.60
2022-10-18T10:46:14.046Z,18.00
2022-10-18T10:47:14.008Z,17.30
2022-10-18T10:48:14.052Z,16.20
2022-10-18T10:49:38.622Z,16.00
2022-10-18T10:50:15.097Z,15.70
2022-10-18T10:51:13.959Z,16.00
2022-10-18T10:52:25.941Z,15.00
2022-10-18T10:53:15.067Z,16.10
2022-10-18T10:54:13.914Z,15.70
2022-10-18T10:56:16.048Z,17.80
2022-10-18T10:57:13.889Z,17.60
2022-10-18T10:58:13.854Z,18.90
2022-10-18T10:59:13.917Z,18.60
2022-10-18T11:00:13.846Z,18.50
2022-10-18T11:01:13.827Z,16.70
2022-10-18T11:02:13.939Z,17.00
2022-10-18T11:03:27.829Z,14.50
2022-10-18T11:04:14.822Z,14.50
2022-10-18T11:05:13.798Z,14.70
2022-10-18T11:06:13.752Z,15.80
2022-10-18T11:07:13.779Z,15.70
2022-10-18T11:08:13.871Z,14.80
2022-10-18T11:09:13.713Z,15.10
2022-10-18T11:10:13.697Z,14.20
2022-10-18T11:11:13.705Z,13.60
2022-10-18T11:12:13.687Z,13.80
2022-10-18T11:13:13.660Z,13.70
2022-10-18T11:14:25.216Z,14.30
2022-10-18T11:15:14.652Z,14.40
2022-10-18T11:16:13.640Z,13.50
2022-10-18T11:17:13.624Z,12.80
2022-10-18T11:18:13.594Z,12.30
2022-10-18T11:19:13.594Z,12.60
2022-10-18T11:20:13.594Z,12.10
2022-10-18T11:21:13.554Z,11.20
2022-10-18T11:22:13.550Z,11.70
2022-10-18T11:23:13.504Z,10.70
2022-10-18T11:24:13.510Z,11.30
2022-10-18T11:25:13.516Z,12.00
2022-10-18T11:26:13.525Z,12.10
2022-10-18T11:27:13.476Z,11.80
2022-10-18T11:28:13.457Z,12.60
2022-10-18T11:29:13.457Z,12.60
2022-10-18T11:30:13.425Z,13.00
2022-10-18T11:31:13.428Z,13.60
2022-10-18T11:32:13.461Z,13.20
2022-10-18T11:33:13.386Z,13.30
2022-10-18T11:34:13.379Z,13.20
2022-10-18T11:35:13.358Z,12.40
2022-10-18T11:36:13.366Z,10.90
2022-10-18T11:37:27.656Z,11.00
2022-10-18T11:38:14.432Z,11.10
2022-10-18T11:39:13.311Z,10.30
2022-10-18T11:40:13.293Z,10.90
2022-10-18T11:41:13.299Z,11.90
2022-10-18T11:42:13.259Z,11.20
2022-10-18T11:43:13.272Z,10.80
2022-10-18T11:44:13.274Z,10.30
2022-10-18T11:45:13.223Z,10.60
2022-10-18T11:46:13.220Z,10.90
2022-10-18T11:47:13.193Z,11.20
2022-10-18T11:48:13.185Z,10.60
2022-10-18T11:49:13.186Z,10.70
2022-10-18T11:50:13.182Z,10.30
2022-10-18T11:51:13.157Z,9.90
2022-10-18T11:52:13.180Z,10.80
2022-10-18T11:53:13.122Z,10.20
2022-10-18T11:54:13.115Z,9.70
2022-10-18T11:55:13.104Z,10.00
2022-10-18T11:56:13.195Z,9.90
2022-10-18T11:57:13.079Z,9.00
2022-10-18T11:58:13.050Z,9.20
2022-10-18T11:59:13.056Z,9.10
2022-10-18T12:00:13.040Z,9.00
2022-10-18T12:01:13.025Z,9.50
2022-10-18T12:02:13.156Z,9.40
2022-10-18T12:03:12.982Z,10.20
2022-10-18T12:04:12.969Z,9.30
2022-10-18T12:05:23.181Z,9.40
2022-10-18T12:06:13.931Z,8.80
2022-10-18T12:07:12.955Z,8.70
2022-10-18T12:08:12.943Z,7.60
2022-10-18T12:09:12.901Z,6.80
2022-10-18T12:10:12.922Z,6.30
2022-10-18T12:11:12.873Z,6.30
2022-10-18T12:12:12.863Z,6.00
2022-10-18T12:13:12.885Z,5.60
2022-10-18T12:14:12.968Z,5.70
2022-10-18T12:15:12.824Z,5.20
2022-10-18T12:16:12.821Z,5.20
2022-10-18T12:17:51.104Z,5.90
2022-10-18T12:18:13.774Z,6.20
2022-10-18T12:19:12.796Z,5.90
2022-10-18T12:20:12.912Z,6.00
2022-10-18T12:21:12.748Z,6.20
2022-10-18T12:22:12.735Z,6.60
2022-10-18T12:23:12.728Z,6.20
2022-10-18T12:24:12.695Z,6.00
2022-10-18T12:25:12.719Z,5.50
2022-10-18T12:26:12.710Z,5.10
2022-10-18T12:27:12.671Z,5.50
2022-10-18T12:28:12.651Z,5.20
2022-10-18T12:29:12.647Z,5.10
2022-10-18T12:30:12.610Z,5.00
2022-10-18T12:31:12.623Z,5.50
2022-10-18T12:32:12.725Z,5.40
2022-10-18T12:33:28.559Z,4.70
2022-10-18T12:34:13.586Z,4.60
2022-10-18T12:35:12.554Z,4.40
2022-10-18T12:36:12.528Z,4.40
2022-10-18T12:37:12.545Z,4.30
2022-10-18T12:38:12.535Z,4.00
2022-10-18T12:39:12.516Z,4.10